sensor_id;sensor_type;location;lat;lon;timestamp;P1;durP1;ratioP1;P2;durP2;ratioP2
17449;SDS011;8842;51.244;7.102;2023-02-13T00:04:22;11.73;;;11.03;;
17449;SDS011;8842;51.244;7.102;2023-02-13T00:14:37;11.50;;;10.90;;
17449;SDS011;8842;51.244;7.102;2023-02-13T00:19:50;11.70;;;10.90;;
17449;SDS011;8842;51.244;7.102;2023-02-13T00:30:06;11.07;;;10.47;;
17449;SDS011;8842;51.244;7.102;2023-02-13T00:35:11;11.33;;;10.73;;
17449;SDS011;8842;51.244;7.102;2023-02-13T00:40:23;11.30;;;10.70;;
17449;SDS011;8842;51.244;7.102;2023-02-13T00:50:39;11.50;;;10.90;;
17449;SDS011;8842;51.244;7.102;2023-02-13T01:00:54;10.90;;;10.30;;
17449;SDS011;8842;51.244;7.102;2023-02-13T01:05:58;12.17;;;11.13;;
17449;SDS011;8842;51.244;7.102;2023-02-13T01:11:10;11.20;;;10.60;;
17449;SDS011;8842;51.244;7.102;2023-02-13T01:16:22;10.90;;;10.27;;
17449;SDS011;8842;51.244;7.102;2023-02-13T01:26:37;11.20;;;10.60;;
17449;SDS011;8842;51.244;7.102;2023-02-13T01:31:41;10.90;;;10.30;;
17449;SDS011;8842;51.244;7.102;2023-02-13T01:36:52;11.20;;;10.60;;
17449;SDS011;8842;51.244;7.102;2023-02-13T01:41:57;11.50;;;10.90;;
17449;SDS011;8842;51.244;7.102;2023-02-13T01:47:09;11.10;;;10.50;;
17449;SDS011;8842;51.244;7.102;2023-02-13T01:57:34;11.40;;;10.70;;
17449;SDS011;8842;51.244;7.102;2023-02-13T02:02:48;11.77;;;11.07;;
17449;SDS011;8842;51.244;7.102;2023-02-13T02:08:04;12.70;;;11.90;;
17449;SDS011;8842;51.244;7.102;2023-02-13T02:18:22;11.60;;;11.00;;
17449;SDS011;8842;51.244;7.102;2023-02-13T02:23:46;17.23;;;11.77;;
17449;SDS011;8842;51.244;7.102;2023-02-13T02:34:14;12.57;;;11.70;;
17449;SDS011;8842;51.244;7.102;2023-02-13T02:44:36;11.63;;;11.03;;
17449;SDS011;8842;51.244;7.102;2023-02-13T02:49:44;12.23;;;11.40;;
17449;SDS011;8842;51.244;7.102;2023-02-13T02:54:59;12.23;;;11.40;;
17449;SDS011;8842;51.244;7.102;2023-02-13T03:05:20;11.53;;;10.93;;
17449;SDS011;8842;51.244;7.102;2023-02-13T03:10:45;13.40;;;12.60;;
17449;SDS011;8842;51.244;7.102;2023-02-13T03:15:58;11.33;;;10.73;;
17449;SDS011;8842;51.244;7.102;2023-02-13T03:26:35;11.40;;;10.50;;
17449;SDS011;8842;51.244;7.102;2023-02-13T03:31:50;11.97;;;11.13;;
17449;SDS011;8842;51.244;7.102;2023-02-13T03:36:58;11.60;;;11.00;;
17449;SDS011;8842;51.244;7.102;2023-02-13T03:42:12;11.27;;;10.67;;
17449;SDS011;8842;51.244;7.102;2023-02-13T03:47:25;12.10;;;11.10;;
17449;SDS011;8842;51.244;7.102;2023-02-13T03:52:30;11.70;;;11.10;;
17449;SDS011;8842;51.244;7.102;2023-02-13T03:57:44;12.80;;;11.47;;
17449;SDS011;8842;51.244;7.102;2023-02-13T04:03:12;11.30;;;10.70;;
17449;SDS011;8842;51.244;7.102;2023-02-13T04:08:23;11.70;;;11.00;;
17449;SDS011;8842;51.244;7.102;2023-02-13T04:13:29;11.53;;;10.93;;
17449;SDS011;8842;51.244;7.102;2023-02-13T04:18:41;12.30;;;11.70;;
17449;SDS011;8842;51.244;7.102;2023-02-13T04:23:54;11.77;;;11.17;;
17449;SDS011;8842;51.244;7.102;2023-02-13T04:29:06;11.87;;;11.17;;
17449;SDS011;8842;51.244;7.102;2023-02-13T04:39:21;11.97;;;11.27;;
17449;SDS011;8842;51.244;7.102;2023-02-13T04:44:25;12.50;;;11.80;;
17449;SDS011;8842;51.244;7.102;2023-02-13T04:49:37;12.80;;;12.10;;
17449;SDS011;8842;51.244;7.102;2023-02-13T04:54:41;11.90;;;11.30;;
17449;SDS011;8842;51.244;7.102;2023-02-13T04:59:53;12.30;;;11.60;;
17449;SDS011;8842;51.244;7.102;2023-02-13T05:04:57;11.73;;;11.13;;
17449;SDS011;8842;51.244;7.102;2023-02-13T05:10:09;13.10;;;12.30;;
17449;SDS011;8842;51.244;7.102;2023-02-13T05:15:14;11.70;;;11.00;;
17449;SDS011;8842;51.244;7.102;2023-02-13T05:20:26;12.10;;;11.30;;
17449;SDS011;8842;51.244;7.102;2023-02-13T05:25:30;12.30;;;11.60;;
17449;SDS011;8842;51.244;7.102;2023-02-13T05:30:42;12.53;;;11.83;;
17449;SDS011;8842;51.244;7.102;2023-02-13T05:35:53;12.00;;;11.40;;
17449;SDS011;8842;51.244;7.102;2023-02-13T05:40:58;12.00;;;11.40;;
17449;SDS011;8842;51.244;7.102;2023-02-13T05:46:09;12.60;;;11.73;;
17449;SDS011;8842;51.244;7.102;2023-02-13T05:56:24;11.90;;;11.30;;
17449;SDS011;8842;51.244;7.102;2023-02-13T06:11:50;12.70;;;11.90;;
17449;SDS011;8842;51.244;7.102;2023-02-13T06:22:05;12.60;;;11.80;;
17449;SDS011;8842;51.244;7.102;2023-02-13T06:27:20;12.20;;;11.50;;
17449;SDS011;8842;51.244;7.102;2023-02-13T06:32:31;12.10;;;11.40;;
17449;SDS011;8842;51.244;7.102;2023-02-13T06:37:35;12.00;;;11.40;;
17449;SDS011;8842;51.244;7.102;2023-02-13T06:42:47;12.60;;;11.80;;
17449;SDS011;8842;51.244;7.102;2023-02-13T06:48:01;12.60;;;11.90;;
17449;SDS011;8842;51.244;7.102;2023-02-13T06:53:06;12.93;;;12.23;;
17449;SDS011;8842;51.244;7.102;2023-02-13T06:58:18;11.90;;;11.30;;
17449;SDS011;8842;51.244;7.102;2023-02-13T07:03:22;12.90;;;12.20;;
17449;SDS011;8842;51.244;7.102;2023-02-13T07:08:33;11.83;;;11.23;;
17449;SDS011;8842;51.244;7.102;2023-02-13T07:13:37;12.00;;;11.30;;
17449;SDS011;8842;51.244;7.102;2023-02-13T07:18:49;11.80;;;11.20;;
17449;SDS011;8842;51.244;7.102;2023-02-13T07:23:53;12.17;;;11.57;;
17449;SDS011;8842;51.244;7.102;2023-02-13T07:29:05;11.13;;;10.53;;
17449;SDS011;8842;51.244;7.102;2023-02-13T07:34:16;11.03;;;10.43;;
17449;SDS011;8842;51.244;7.102;2023-02-13T07:39:20;11.27;;;10.67;;
17449;SDS011;8842;51.244;7.102;2023-02-13T07:44:32;11.73;;;10.93;;
17449;SDS011;8842;51.244;7.102;2023-02-13T07:49:36;11.30;;;10.70;;
17449;SDS011;8842;51.244;7.102;2023-02-13T07:54:48;11.80;;;11.20;;
17449;SDS011;8842;51.244;7.102;2023-02-13T07:59:53;11.47;;;10.80;;
17449;SDS011;8842;51.244;7.102;2023-02-13T08:05:06;11.30;;;10.70;;
17449;SDS011;8842;51.244;7.102;2023-02-13T08:15:22;11.50;;;10.90;;
17449;SDS011;8842;51.244;7.102;2023-02-13T08:20:26;11.80;;;11.10;;
17449;SDS011;8842;51.244;7.102;2023-02-13T08:25:30;12.83;;;12.13;;
17449;SDS011;8842;51.244;7.102;2023-02-13T08:30:42;12.40;;;11.67;;
17449;SDS011;8842;51.244;7.102;2023-02-13T08:35:54;11.60;;;11.00;;
17449;SDS011;8842;51.244;7.102;2023-02-13T08:40:58;12.03;;;11.43;;
17449;SDS011;8842;51.244;7.102;2023-02-13T08:51:13;12.20;;;11.50;;
17449;SDS011;8842;51.244;7.102;2023-02-13T08:56:17;11.60;;;11.00;;
17449;SDS011;8842;51.244;7.102;2023-02-13T09:01:21;11.63;;;11.03;;
17449;SDS011;8842;51.244;7.102;2023-02-13T09:06:26;11.50;;;10.80;;
17449;SDS011;8842;51.244;7.102;2023-02-13T09:11:30;11.87;;;10.97;;
17449;SDS011;8842;51.244;7.102;2023-02-13T09:16:42;11.03;;;10.43;;
17449;SDS011;8842;51.244;7.102;2023-02-13T09:26:57;11.70;;;11.10;;
17449;SDS011;8842;51.244;7.102;2023-02-13T09:32:01;11.00;;;10.20;;
17449;SDS011;8842;51.244;7.102;2023-02-13T09:37:14;11.30;;;10.70;;
17449;SDS011;8842;51.244;7.102;2023-02-13T09:42:19;10.60;;;10.00;;
17449;SDS011;8842;51.244;7.102;2023-02-13T09:47:33;11.00;;;10.40;;
17449;SDS011;8842;51.244;7.102;2023-02-13T09:57:52;10.90;;;10.30;;
17449;SDS011;8842;51.244;7.102;2023-02-13T10:08:32;12.10;;;11.50;;
17449;SDS011;8842;51.244;7.102;2023-02-13T10:19:04;12.50;;;11.80;;
17449;SDS011;8842;51.244;7.102;2023-02-13T10:24:21;12.90;;;11.83;;
17449;SDS011;8842;51.244;7.102;2023-02-13T10:29:34;12.67;;;11.80;;
17449;SDS011;8842;51.244;7.102;2023-02-13T10:35:00;11.50;;;10.90;;
17449;SDS011;8842;51.244;7.102;2023-02-13T10:40:08;11.97;;;11.27;;
17449;SDS011;8842;51.244;7.102;2023-02-13T10:45:28;12.17;;;11.47;;
17449;SDS011;8842;51.244;7.102;2023-02-13T10:50:38;16.00;;;10.90;;
17449;SDS011;8842;51.244;7.102;2023-02-13T11:01:32;10.90;;;10.30;;
17449;SDS011;8842;51.244;7.102;2023-02-13T11:06:41;11.00;;;10.40;;
17449;SDS011;8842;51.244;7.102;2023-02-13T11:11:47;11.37;;;10.77;;
17449;SDS011;8842;51.244;7.102;2023-02-13T11:17:00;11.83;;;11.17;;
17449;SDS011;8842;51.244;7.102;2023-02-13T11:22:07;11.90;;;11.30;;
17449;SDS011;8842;51.244;7.102;2023-02-13T11:27:22;11.87;;;11.17;;
17449;SDS011;8842;51.244;7.102;2023-02-13T11:37:42;11.80;;;11.20;;
17449;SDS011;8842;51.244;7.102;2023-02-13T11:42:46;12.17;;;11.57;;
17449;SDS011;8842;51.244;7.102;2023-02-13T11:48:01;11.80;;;11.20;;
17449;SDS011;8842;51.244;7.102;2023-02-13T11:53:18;12.50;;;11.80;;
17449;SDS011;8842;51.244;7.102;2023-02-13T11:58:25;12.07;;;11.47;;
17449;SDS011;8842;51.244;7.102;2023-02-13T12:03:37;12.10;;;11.50;;
17449;SDS011;8842;51.244;7.102;2023-02-13T12:08:43;11.90;;;11.30;;
17449;SDS011;8842;51.244;7.102;2023-02-13T12:13:56;12.13;;;11.53;;
17449;SDS011;8842;51.244;7.102;2023-02-13T12:19:01;12.40;;;11.70;;
17449;SDS011;8842;51.244;7.102;2023-02-13T12:24:16;12.53;;;11.83;;
17449;SDS011;8842;51.244;7.102;2023-02-13T12:29:36;12.37;;;11.73;;
17449;SDS011;8842;51.244;7.102;2023-02-13T12:35:15;13.00;;;12.30;;
17449;SDS011;8842;51.244;7.102;2023-02-13T12:40:47;12.60;;;11.90;;
17449;SDS011;8842;51.244;7.102;2023-02-13T12:46:09;12.77;;;12.07;;
17449;SDS011;8842;51.244;7.102;2023-02-13T12:51:23;12.13;;;11.53;;
17449;SDS011;8842;51.244;7.102;2023-02-13T12:56:48;12.03;;;11.43;;
17449;SDS011;8842;51.244;7.102;2023-02-13T13:07:58;11.97;;;11.37;;
17449;SDS011;8842;51.244;7.102;2023-02-13T13:13:11;12.10;;;11.50;;
17449;SDS011;8842;51.244;7.102;2023-02-13T13:18:34;11.90;;;11.30;;
17449;SDS011;8842;51.244;7.102;2023-02-13T13:23:44;11.23;;;10.63;;
17449;SDS011;8842;51.244;7.102;2023-02-13T13:28:57;11.40;;;10.80;;
17449;SDS011;8842;51.244;7.102;2023-02-13T13:34:05;11.17;;;10.57;;
17449;SDS011;8842;51.244;7.102;2023-02-13T13:39:22;10.37;;;9.87;;
17449;SDS011;8842;51.244;7.102;2023-02-13T13:44:39;10.17;;;9.67;;
17449;SDS011;8842;51.244;7.102;2023-02-13T13:49:52;11.00;;;10.40;;
17449;SDS011;8842;51.244;7.102;2023-02-13T13:55:05;10.80;;;10.20;;
17449;SDS011;8842;51.244;7.102;2023-02-13T14:00:23;10.53;;;10.03;;
17449;SDS011;8842;51.244;7.102;2023-02-13T14:05:55;11.77;;;10.77;;
17449;SDS011;8842;51.244;7.102;2023-02-13T14:11:24;11.00;;;10.40;;
17449;SDS011;8842;51.244;7.102;2023-02-13T14:16:41;11.00;;;10.40;;
17449;SDS011;8842;51.244;7.102;2023-02-13T14:26:58;12.17;;;11.47;;
17449;SDS011;8842;51.244;7.102;2023-02-13T14:32:20;11.10;;;10.50;;
17449;SDS011;8842;51.244;7.102;2023-02-13T14:42:39;12.30;;;11.67;;
17449;SDS011;8842;51.244;7.102;2023-02-13T14:52:56;12.13;;;11.53;;
17449;SDS011;8842;51.244;7.102;2023-02-13T14:58:04;12.20;;;11.60;;
17449;SDS011;8842;51.244;7.102;2023-02-13T15:03:12;12.73;;;12.03;;
17449;SDS011;8842;51.244;7.102;2023-02-13T15:08:28;13.00;;;12.20;;
17449;SDS011;8842;51.244;7.102;2023-02-13T15:13:47;12.20;;;11.60;;
17449;SDS011;8842;51.244;7.102;2023-02-13T15:18:59;13.47;;;12.77;;
17449;SDS011;8842;51.244;7.102;2023-02-13T15:24:04;11.80;;;11.20;;
17449;SDS011;8842;51.244;7.102;2023-02-13T15:29:18;12.80;;;12.10;;
17449;SDS011;8842;51.244;7.102;2023-02-13T15:34:31;11.53;;;10.93;;
17449;SDS011;8842;51.244;7.102;2023-02-13T15:39:43;12.20;;;11.60;;
17449;SDS011;8842;51.244;7.102;2023-02-13T15:44:48;12.00;;;11.40;;
17449;SDS011;8842;51.244;7.102;2023-02-13T15:50:00;12.10;;;11.50;;
17449;SDS011;8842;51.244;7.102;2023-02-13T15:55:13;11.53;;;10.93;;
17449;SDS011;8842;51.244;7.102;2023-02-13T16:00:30;12.30;;;11.70;;
17449;SDS011;8842;51.244;7.102;2023-02-13T16:05:43;11.47;;;10.87;;
17449;SDS011;8842;51.244;7.102;2023-02-13T16:11:11;11.43;;;10.83;;
17449;SDS011;8842;51.244;7.102;2023-02-13T16:21:34;12.20;;;11.60;;
17449;SDS011;8842;51.244;7.102;2023-02-13T16:31:49;11.27;;;10.67;;
17449;SDS011;8842;51.244;7.102;2023-02-13T16:42:05;11.97;;;11.37;;
17449;SDS011;8842;51.244;7.102;2023-02-13T16:47:16;12.30;;;11.70;;
17449;SDS011;8842;51.244;7.102;2023-02-13T16:52:24;11.40;;;10.80;;
17449;SDS011;8842;51.244;7.102;2023-02-13T16:57:36;11.20;;;10.60;;
17449;SDS011;8842;51.244;7.102;2023-02-13T17:07:53;11.77;;;11.17;;
17449;SDS011;8842;51.244;7.102;2023-02-13T17:13:10;11.33;;;10.73;;
17449;SDS011;8842;51.244;7.102;2023-02-13T17:23:27;11.90;;;11.30;;
17449;SDS011;8842;51.244;7.102;2023-02-13T17:28:32;11.70;;;11.10;;
17449;SDS011;8842;51.244;7.102;2023-02-13T17:33:43;11.57;;;10.97;;
17449;SDS011;8842;51.244;7.102;2023-02-13T17:43:58;11.60;;;11.00;;
17449;SDS011;8842;51.244;7.102;2023-02-13T17:49:02;11.40;;;10.80;;
17449;SDS011;8842;51.244;7.102;2023-02-13T17:54:16;11.30;;;10.70;;
17449;SDS011;8842;51.244;7.102;2023-02-13T18:04:31;11.70;;;11.10;;
17449;SDS011;8842;51.244;7.102;2023-02-13T18:09:35;11.77;;;11.17;;
17449;SDS011;8842;51.244;7.102;2023-02-13T18:14:47;11.90;;;11.30;;
17449;SDS011;8842;51.244;7.102;2023-02-13T18:19:54;11.60;;;10.90;;
17449;SDS011;8842;51.244;7.102;2023-02-13T18:25:09;11.50;;;10.90;;
17449;SDS011;8842;51.244;7.102;2023-02-13T18:30:16;11.20;;;10.60;;
17449;SDS011;8842;51.244;7.102;2023-02-13T18:35:22;11.27;;;10.67;;
17449;SDS011;8842;51.244;7.102;2023-02-13T18:45:37;11.00;;;10.40;;
17449;SDS011;8842;51.244;7.102;2023-02-13T18:50:41;11.87;;;11.27;;
17449;SDS011;8842;51.244;7.102;2023-02-13T18:55:58;11.40;;;10.80;;
17449;SDS011;8842;51.244;7.102;2023-02-13T19:06:20;11.80;;;11.20;;
17449;SDS011;8842;51.244;7.102;2023-02-13T19:11:25;11.00;;;10.40;;
17449;SDS011;8842;51.244;7.102;2023-02-13T19:16:38;11.37;;;10.77;;
17449;SDS011;8842;51.244;7.102;2023-02-13T19:21:49;10.80;;;10.20;;
17449;SDS011;8842;51.244;7.102;2023-02-13T19:26:53;10.93;;;10.30;;
17449;SDS011;8842;51.244;7.102;2023-02-13T19:32:05;10.37;;;9.83;;
17449;SDS011;8842;51.244;7.102;2023-02-13T19:37:09;10.23;;;9.73;;
17449;SDS011;8842;51.244;7.102;2023-02-13T19:42:21;10.40;;;9.90;;
17449;SDS011;8842;51.244;7.102;2023-02-13T19:47:25;10.40;;;9.90;;
17449;SDS011;8842;51.244;7.102;2023-02-13T19:52:37;10.30;;;9.80;;
17449;SDS011;8842;51.244;7.102;2023-02-13T19:57:49;10.70;;;10.10;;
17449;SDS011;8842;51.244;7.102;2023-02-13T20:03:03;10.20;;;9.70;;
17449;SDS011;8842;51.244;7.102;2023-02-13T20:08:07;10.30;;;9.80;;
17449;SDS011;8842;51.244;7.102;2023-02-13T20:13:11;10.70;;;10.10;;
17449;SDS011;8842;51.244;7.102;2023-02-13T20:18:15;10.30;;;9.80;;
17449;SDS011;8842;51.244;7.102;2023-02-13T20:23:21;9.97;;;9.47;;
17449;SDS011;8842;51.244;7.102;2023-02-13T20:28:25;10.00;;;9.50;;
17449;SDS011;8842;51.244;7.102;2023-02-13T20:33:37;10.97;;;9.93;;
17449;SDS011;8842;51.244;7.102;2023-02-13T20:38:42;10.33;;;9.83;;
17449;SDS011;8842;51.244;7.102;2023-02-13T20:43:46;10.93;;;10.33;;
17449;SDS011;8842;51.244;7.102;2023-02-13T20:48:58;10.90;;;10.30;;
17449;SDS011;8842;51.244;7.102;2023-02-13T20:54:02;10.67;;;10.10;;
17449;SDS011;8842;51.244;7.102;2023-02-13T20:59:14;10.93;;;10.33;;
17449;SDS011;8842;51.244;7.102;2023-02-13T21:04:18;11.50;;;10.70;;
17449;SDS011;8842;51.244;7.102;2023-02-13T21:14:33;10.93;;;10.33;;
17449;SDS011;8842;51.244;7.102;2023-02-13T21:19:37;11.10;;;10.40;;
17449;SDS011;8842;51.244;7.102;2023-02-13T21:24:42;11.37;;;10.77;;
17449;SDS011;8842;51.244;7.102;2023-02-13T21:29:54;10.50;;;10.00;;
17449;SDS011;8842;51.244;7.102;2023-02-13T21:35:04;11.23;;;10.63;;
17449;SDS011;8842;51.244;7.102;2023-02-13T21:40:21;11.87;;;11.27;;
17449;SDS011;8842;51.244;7.102;2023-02-13T21:50:36;11.33;;;10.73;;
17449;SDS011;8842;51.244;7.102;2023-02-13T21:55:40;11.60;;;11.00;;
17449;SDS011;8842;51.244;7.102;2023-02-13T22:00:52;11.30;;;10.70;;
17449;SDS011;8842;51.244;7.102;2023-02-13T22:11:07;10.83;;;10.23;;
17449;SDS011;8842;51.244;7.102;2023-02-13T22:16:13;11.23;;;10.50;;
17449;SDS011;8842;51.244;7.102;2023-02-13T22:21:18;10.93;;;10.10;;
17449;SDS011;8842;51.244;7.102;2023-02-13T22:26:30;11.60;;;10.97;;
17449;SDS011;8842;51.244;7.102;2023-02-13T22:31:35;11.20;;;10.60;;
17449;SDS011;8842;51.244;7.102;2023-02-13T22:36:47;11.37;;;10.77;;
17449;SDS011;8842;51.244;7.102;2023-02-13T22:41:54;11.40;;;10.60;;
17449;SDS011;8842;51.244;7.102;2023-02-13T22:47:06;10.73;;;10.17;;
17449;SDS011;8842;51.244;7.102;2023-02-13T22:52:10;11.20;;;10.60;;
17449;SDS011;8842;51.244;7.102;2023-02-13T23:02:25;11.00;;;10.40;;
17449;SDS011;8842;51.244;7.102;2023-02-13T23:07:29;10.93;;;10.33;;
17449;SDS011;8842;51.244;7.102;2023-02-13T23:12:41;11.10;;;10.50;;
17449;SDS011;8842;51.244;7.102;2023-02-13T23:17:52;11.00;;;10.40;;
17449;SDS011;8842;51.244;7.102;2023-02-13T23:23:04;11.03;;;10.43;;
17449;SDS011;8842;51.244;7.102;2023-02-13T23:28:08;11.43;;;10.83;;
17449;SDS011;8842;51.244;7.102;2023-02-13T23:33:20;10.80;;;10.20;;
17449;SDS011;8842;51.244;7.102;2023-02-13T23:38:24;11.40;;;10.80;;
17449;SDS011;8842;51.244;7.102;2023-02-13T23:43:36;11.20;;;10.60;;
17449;SDS011;8842;51.244;7.102;2023-02-13T23:48:40;11.33;;;10.73;;
17449;SDS011;8842;51.244;7.102;2023-02-13T23:53:52;11.90;;;11.20;;
17449;SDS011;8842;51.244;7.102;2023-02-13T23:59:04;11.10;;;10.50;;
